createdAt,value
2022-09-09T00:00:59.572Z,95328.2
2022-09-09T00:02:01.924Z,95326.2
2022-09-09T00:03:05.006Z,95321.1
2022-09-09T00:04:07.618Z,95321.6
2022-09-09T00:05:10.096Z,95319.1
2022-09-09T00:06:12.562Z,95320
2022-09-09T00:07:15.036Z,95320
2022-09-09T00:08:17.262Z,95322.9
2022-09-09T00:09:19.511Z,95319.8
2022-09-09T00:10:21.696Z,95319.7
2022-09-09T00:11:25.323Z,95320.7
2022-09-09T00:12:30.121Z,95321
2022-09-09T00:13:32.590Z,95318.4
2022-09-09T00:14:35.087Z,95320.2
2022-09-09T00:15:37.525Z,95318.5
2022-09-09T00:16:39.806Z,95320.3
2022-09-09T00:17:42.322Z,95320.3
2022-09-09T00:18:44.563Z,95316.3
2022-09-09T00:19:47.061Z,95317.6
2022-09-09T00:20:49.272Z,95320.2
2022-09-09T00:21:50.943Z,95321.1
2022-09-09T00:22:53.167Z,95318.2
2022-09-09T00:23:55.654Z,95320.6
2022-09-09T00:24:58.154Z,95317.8
2022-09-09T00:26:00.655Z,95314.9
2022-09-09T00:27:02.842Z,95313.1
2022-09-09T00:28:05.363Z,95309.8
2022-09-09T00:29:07.544Z,95313.7
2022-09-09T00:30:09.526Z,95311.4
2022-09-09T00:31:11.895Z,95315
2022-09-09T00:32:13.931Z,95309.6
2022-09-09T00:33:16.086Z,95309.4
2022-09-09T00:34:18.307Z,95316.5
2022-09-09T00:35:19.939Z,95312
2022-09-09T00:36:22.139Z,95315.3
2022-09-09T00:37:24.628Z,95313.4
2022-09-09T00:38:26.839Z,95314.2
2022-09-09T00:39:28.773Z,95313.6
2022-09-09T00:40:31.363Z,95314.4
2022-09-09T00:41:33.868Z,95317.2
2022-09-09T00:42:35.501Z,95319.7
2022-09-09T00:43:38.009Z,95320.8
2022-09-09T00:44:40.512Z,95321.5
2022-09-09T00:45:43.131Z,95319.6
2022-09-09T00:46:45.659Z,95318.1
2022-09-09T00:47:47.586Z,95318.2
2022-09-09T00:48:50.092Z,95319.6
2022-09-09T00:49:52.318Z,95317
2022-09-09T00:50:54.796Z,95315.9
2022-09-09T00:51:57.276Z,95313.4
2022-09-09T00:52:59.758Z,95313.8
2022-09-09T00:54:02.233Z,95314.8
2022-09-09T00:55:04.153Z,95315.9
2022-09-09T00:56:06.371Z,95315.7
2022-09-09T00:57:08.574Z,95310.5
2022-09-09T00:58:11.044Z,95309.8
2022-09-09T00:59:13.547Z,95310
2022-09-09T01:00:15.730Z,95310.4
2022-09-09T01:01:18.205Z,95320.5
2022-09-09T01:02:21.140Z,95314.4
2022-09-09T01:03:23.697Z,95314.8
2022-09-09T01:04:26.182Z,95315.9
2022-09-09T01:05:28.128Z,95317.5
2022-09-09T01:06:30.334Z,95319.1
2022-09-09T01:07:32.801Z,95320.3
2022-09-09T01:08:35.654Z,95319.2
2022-09-09T01:09:38.095Z,95325.7
2022-09-09T01:10:40.568Z,95321.5
2022-09-09T01:11:43.056Z,95327
2022-09-09T01:12:45.611Z,95320.6
2022-09-09T01:13:47.821Z,95323.9
2022-09-09T01:14:50.059Z,95321.5
2022-09-09T01:15:52.528Z,95321.4
2022-09-09T01:16:55.390Z,95320.8
2022-09-09T01:17:57.965Z,95316.4
2022-09-09T01:19:00.455Z,95315.5
2022-09-09T01:20:02.678Z,95316.2
2022-09-09T01:21:05.184Z,95317
2022-09-09T01:22:07.389Z,95314.5
2022-09-09T01:23:09.590Z,95310.4
2022-09-09T01:24:12.061Z,95314.6
2022-09-09T01:25:14.542Z,95316.3
2022-09-09T01:26:16.466Z,95315.2
2022-09-09T01:27:18.958Z,95316
2022-09-09T01:28:21.153Z,95318.1
2022-09-09T01:29:23.637Z,95314
2022-09-09T01:30:25.848Z,95317.9
2022-09-09T01:31:28.175Z,95311.8
2022-09-09T01:32:30.719Z,95314.1
2022-09-09T01:33:33.197Z,95310.6
2022-09-09T01:34:35.688Z,95313.2
2022-09-09T01:35:38.173Z,95317.5
2022-09-09T01:36:40.682Z,95313.1
2022-09-09T01:37:43.165Z,95312.5
2022-09-09T01:38:45.625Z,95310.4
2022-09-09T01:39:48.121Z,95313.1
2022-09-09T01:40:50.656Z,95315
2022-09-09T01:41:53.135Z,95312.8
2022-09-09T01:42:55.633Z,95318
2022-09-09T01:43:57.806Z,95316.5
2022-09-09T01:45:00.000Z,95314.9
2022-09-09T01:46:02.961Z,95313.8
2022-09-09T01:47:05.611Z,95314.6
2022-09-09T01:48:08.134Z,95315.4
2022-09-09T01:49:10.338Z,95314.3
2022-09-09T01:50:12.251Z,95312.7
2022-09-09T01:51:14.738Z,95312.4
2022-09-09T01:52:16.971Z,95314.3
2022-09-09T01:53:19.448Z,95312.6
2022-09-09T01:54:21.360Z,95315.8
2022-09-09T01:55:23.827Z,95319
2022-09-09T01:56:26.327Z,95319.7
2022-09-09T01:57:28.521Z,95314.4
2022-09-09T01:58:31.748Z,95314.4
2022-09-09T01:59:34.054Z,95318.9
2022-09-09T02:00:36.531Z,95313.1
2022-09-09T02:01:39.211Z,95315.1
2022-09-09T02:02:42.141Z,95317.2
2022-09-09T02:03:44.394Z,95315.4
2022-09-09T02:04:46.323Z,95315.3
2022-09-09T02:05:48.813Z,95314.2
2022-09-09T02:06:51.022Z,95313
2022-09-09T02:07:53.529Z,95310.1
2022-09-09T02:08:55.433Z,95303.2
2022-09-09T02:09:57.914Z,95299.5
2022-09-09T02:11:00.381Z,95297.9
2022-09-09T02:12:02.329Z,95298.9
2022-09-09T02:13:04.530Z,95299.9
2022-09-09T02:14:07.017Z,95297.6
2022-09-09T02:15:09.506Z,95296.1
2022-09-09T02:16:12.203Z,95296.5
2022-09-09T02:17:14.510Z,95294.3
2022-09-09T02:18:16.990Z,95294.8
2022-09-09T02:19:19.198Z,95298.8
2022-09-09T02:20:21.679Z,95299.4
2022-09-09T02:21:23.851Z,95301.4
2022-09-09T02:22:26.373Z,95302.7
2022-09-09T02:23:28.781Z,95305.5
2022-09-09T02:24:30.761Z,95301
2022-09-09T02:25:32.953Z,95304.7
2022-09-09T02:26:35.458Z,95302.3
2022-09-09T02:27:37.958Z,95303
2022-09-09T02:28:40.458Z,95300.9
2022-09-09T02:29:42.947Z,95307.3
2022-09-09T02:30:45.496Z,95304.4
2022-09-09T02:31:47.828Z,95304.1
2022-09-09T02:32:50.075Z,95300.4
2022-09-09T02:33:52.263Z,95300.5
2022-09-09T02:34:54.750Z,95298.3
2022-09-09T02:35:56.645Z,95301.6
2022-09-09T02:36:58.569Z,95299.4
2022-09-09T02:38:01.063Z,95300.4
2022-09-09T02:39:03.293Z,95293
2022-09-09T02:40:06.167Z,95290.9
2022-09-09T02:41:08.444Z,95292.7
2022-09-09T02:42:10.937Z,95292.5
2022-09-09T02:43:13.138Z,95293
2022-09-09T02:44:15.602Z,95295.8
2022-09-09T02:45:17.861Z,95296.2
2022-09-09T02:46:20.629Z,95300.8
2022-09-09T02:47:22.995Z,95299.1
2022-09-09T02:48:25.495Z,95296.7
2022-09-09T02:49:27.966Z,95295.2
2022-09-09T02:50:29.902Z,95292.9
2022-09-09T02:51:32.415Z,95290.2
2022-09-09T02:52:34.892Z,95296.2
2022-09-09T02:53:37.113Z,95294.7
2022-09-09T02:54:39.606Z,95294.7
2022-09-09T02:55:41.855Z,95299.5
2022-09-09T02:56:44.068Z,95293.6
2022-09-09T02:57:46.260Z,95296.1
2022-09-09T02:58:48.456Z,95295.9
2022-09-09T02:59:50.918Z,95294.4
2022-09-09T03:00:53.753Z,95298.1
2022-09-09T03:01:56.494Z,95295.2
2022-09-09T03:02:59.074Z,95294.9
2022-09-09T03:04:01.298Z,95293.8
2022-09-09T03:05:03.529Z,95291.3
2022-09-09T03:06:06.023Z,95286.7
2022-09-09T03:07:08.214Z,95287.3
2022-09-09T03:08:10.687Z,95285.8
2022-09-09T03:09:13.180Z,95286.4
2022-09-09T03:10:15.666Z,95288.8
2022-09-09T03:11:18.163Z,95290
2022-09-09T03:12:20.644Z,95291
2022-09-09T03:13:23.134Z,95288.2
2022-09-09T03:14:25.607Z,95288.6
2022-09-09T03:15:28.116Z,95293.1
2022-09-09T03:16:30.910Z,95292.4
2022-09-09T03:17:33.191Z,95285.7
2022-09-09T03:18:36.212Z,95287
2022-09-09T03:19:38.745Z,95286
2022-09-09T03:20:41.212Z,95280.8
2022-09-09T03:21:43.411Z,95284.3
2022-09-09T03:22:45.898Z,95282.3
2022-09-09T03:23:48.075Z,95290.8
2022-09-09T03:24:50.551Z,95290.2
2022-09-09T03:25:52.793Z,95290
2022-09-09T03:26:55.278Z,95289.8
2022-09-09T03:27:57.481Z,95291
2022-09-09T03:28:59.685Z,95286.5
2022-09-09T03:30:01.897Z,95283.5
2022-09-09T03:31:04.069Z,95287.4
2022-09-09T03:32:06.965Z,95287.1
2022-09-09T03:33:09.592Z,95283.8
2022-09-09T03:34:12.065Z,95283.5
2022-09-09T03:35:14.281Z,95280.1
2022-09-09T03:36:16.487Z,95283.6
2022-09-09T03:37:18.427Z,95281.3
2022-09-09T03:38:20.920Z,95284.3
2022-09-09T03:39:23.387Z,95282.3
2022-09-09T03:40:25.611Z,95287.7
2022-09-09T03:41:28.102Z,95286.4
2022-09-09T03:42:30.306Z,95288.9
2022-09-09T03:43:32.500Z,95285.7
2022-09-09T03:44:34.702Z,95288.1
2022-09-09T03:45:37.387Z,95286.1
2022-09-09T03:46:39.667Z,95288.5
2022-09-09T03:47:42.161Z,95289
2022-09-09T03:48:44.635Z,95289.5
2022-09-09T03:49:47.117Z,95291.8
2022-09-09T03:50:49.349Z,95287.8
2022-09-09T03:51:51.815Z,95286.3
2022-09-09T03:52:54.304Z,95288.5
2022-09-09T03:53:56.783Z,95292.3
2022-09-09T03:54:58.986Z,95287.6
2022-09-09T03:56:01.682Z,95287
2022-09-09T03:57:04.170Z,95293.1
2022-09-09T03:58:06.350Z,95287.2
2022-09-09T03:59:08.559Z,95285.4
2022-09-09T04:00:10.781Z,95279.5
2022-09-09T04:01:13.000Z,95286.4
2022-09-09T04:02:15.713Z,95275.4
2022-09-09T04:03:18.318Z,95280.7
2022-09-09T04:04:20.793Z,95281.1
2022-09-09T04:05:23.273Z,95283.6
2022-09-09T04:06:25.790Z,95281.7
2022-09-09T04:07:28.253Z,95279.6
2022-09-09T04:08:30.837Z,95276.1
2022-09-09T04:09:33.319Z,95277.3
2022-09-09T04:10:35.539Z,95279.4
2022-09-09T04:11:38.029Z,95279.5
2022-09-09T04:12:40.268Z,95278.1
2022-09-09T04:13:42.735Z,95277.2
2022-09-09T04:14:45.210Z,95275.1
2022-09-09T04:15:47.673Z,95271.4
2022-09-09T04:16:50.154Z,95277.1
2022-09-09T04:17:52.395Z,95272.2
2022-09-09T04:18:54.940Z,95269.4
2022-09-09T04:19:57.409Z,95271.2
2022-09-09T04:20:59.896Z,95268.1
2022-09-09T04:22:02.404Z,95268.6
2022-09-09T04:23:04.620Z,95269.4
2022-09-09T04:24:07.113Z,95269.9
2022-09-09T04:25:09.317Z,95272.4
2022-09-09T04:26:11.800Z,95266.5
2022-09-09T04:27:14.325Z,95264.2
2022-09-09T04:28:16.814Z,95264
2022-09-09T04:29:19.010Z,95257.3
2022-09-09T04:30:21.507Z,95255
2022-09-09T04:31:24.468Z,95256.3
2022-09-09T04:32:26.858Z,95250
2022-09-09T04:33:29.328Z,95248.8
2022-09-09T04:34:31.823Z,95252.3
2022-09-09T04:35:34.306Z,95248.2
2022-09-09T04:36:36.782Z,95249.4
2022-09-09T04:37:39.004Z,95252.9
2022-09-09T04:38:41.483Z,95253
2022-09-09T04:39:44.257Z,95255.4
2022-09-09T04:40:46.632Z,95255.8
2022-09-09T04:41:48.818Z,95256.2
2022-09-09T04:42:51.037Z,95259.3
2022-09-09T04:43:53.526Z,95260.6
2022-09-09T04:44:55.737Z,95259.1
2022-09-09T04:45:58.600Z,95260.9
2022-09-09T04:47:00.949Z,95257.1
2022-09-09T04:48:03.419Z,95257.3
2022-09-09T04:49:05.323Z,95257.6
2022-09-09T04:50:07.812Z,95255.4
2022-09-09T04:51:10.014Z,95257.3
2022-09-09T04:52:12.486Z,95255.8
2022-09-09T04:53:15.013Z,95253.7
2022-09-09T04:54:17.197Z,95253.7
2022-09-09T04:55:19.129Z,95253.6
2022-09-09T04:56:21.053Z,95254
2022-09-09T04:57:23.236Z,95254.4
2022-09-09T04:58:25.727Z,95251.3
2022-09-09T04:59:28.221Z,95254.9
2022-09-09T05:00:30.883Z,95253.9
2022-09-09T05:01:33.504Z,95254.7
2022-09-09T05:02:36.240Z,95256.7
2022-09-09T05:03:37.701Z,95253.8
2022-09-09T05:04:39.886Z,95254.7
2022-09-09T05:05:42.127Z,95258.3
2022-09-09T05:06:44.312Z,95257
2022-09-09T05:07:46.532Z,95261.8
2022-09-09T05:08:49.032Z,95263.9
2022-09-09T05:09:50.941Z,95260.5
2022-09-09T05:10:53.427Z,95262.2
2022-09-09T05:11:55.619Z,95262
2022-09-09T05:12:58.088Z,95261.6
2022-09-09T05:14:00.299Z,95261.3
2022-09-09T05:15:02.241Z,95266.6
2022-09-09T05:16:05.023Z,95259.7
2022-09-09T05:17:07.436Z,95267.6
2022-09-09T05:18:09.906Z,95264.7
2022-09-09T05:19:12.376Z,95265.6
2022-09-09T05:21:19.575Z,95260.7
2022-09-09T05:22:21.775Z,95267
2022-09-09T05:23:24.239Z,95262.9
2022-09-09T05:24:26.464Z,95266.8
2022-09-09T05:25:28.639Z,95269.8
2022-09-09T05:26:30.307Z,95271.2
2022-09-09T05:27:32.252Z,95273
2022-09-09T05:28:34.952Z,95276.6
2022-09-09T05:29:37.540Z,95279.2
2022-09-09T05:30:40.046Z,95280.9
2022-09-09T05:31:43.120Z,95285.4
2022-09-09T05:32:45.686Z,95285.3
2022-09-09T05:33:47.876Z,95284.9
2022-09-09T05:34:50.091Z,95281.3
2022-09-09T05:35:52.570Z,95284.4
2022-09-09T05:36:54.794Z,95280.3
2022-09-09T05:37:57.263Z,95279.8
2022-09-09T05:38:59.473Z,95278.5
2022-09-09T05:40:02.011Z,95278.9
2022-09-09T05:41:04.286Z,95276.1
2022-09-09T05:42:06.781Z,95279
2022-09-09T05:43:08.706Z,95275.4
2022-09-09T05:44:10.909Z,95277.6
2022-09-09T05:45:13.420Z,95275.4
2022-09-09T05:46:16.081Z,95274.9
2022-09-09T05:47:18.413Z,95273.1
2022-09-09T05:48:20.908Z,95275.5
2022-09-09T05:49:23.112Z,95275.3
2022-09-09T05:51:32.933Z,95277.1
2022-09-09T05:52:35.177Z,95276.4
2022-09-09T05:53:37.378Z,95283.8
2022-09-09T05:54:39.901Z,95284.4
2022-09-09T05:55:42.398Z,95284
2022-09-09T05:56:46.924Z,95287.9
2022-09-09T05:57:51.065Z,95286.7
2022-09-09T05:58:53.538Z,95289.5
2022-09-09T05:59:55.826Z,95285.2
2022-09-09T06:00:58.024Z,95287
2022-09-09T06:02:00.726Z,95285.9
2022-09-09T06:03:03.789Z,95288.4
2022-09-09T06:04:06.515Z,95287.7
2022-09-09T06:05:08.696Z,95292.3
2022-09-09T06:06:11.164Z,95288.1
2022-09-09T06:07:13.649Z,95294.4
2022-09-09T06:08:15.841Z,95296.5
2022-09-09T06:09:18.053Z,95295.5
2022-09-09T06:10:20.528Z,95293.9
2022-09-09T06:11:22.765Z,95294.1
2022-09-09T06:12:24.409Z,95294.5
2022-09-09T06:13:26.373Z,95294.5
2022-09-09T06:14:28.840Z,95292.1
2022-09-09T06:15:31.331Z,95291.4
2022-09-09T06:16:34.462Z,95287.8
2022-09-09T06:17:37.116Z,95288.8
2022-09-09T06:18:39.442Z,95285.8
2022-09-09T06:19:41.919Z,95288.2
2022-09-09T06:20:44.394Z,95289.3
2022-09-09T06:21:46.875Z,95287.1
2022-09-09T06:22:49.337Z,95293.6
2022-09-09T06:23:51.910Z,95286.9
2022-09-09T06:24:53.827Z,95287.8
2022-09-09T06:25:55.777Z,95286
2022-09-09T06:26:58.277Z,95283
2022-09-09T06:28:00.743Z,95287.5
2022-09-09T06:29:03.242Z,95285.1
2022-09-09T06:30:05.443Z,95284.4
2022-09-09T06:31:07.579Z,95281.2
2022-09-09T06:32:10.201Z,95283.8
2022-09-09T06:33:12.688Z,95285.3
2022-09-09T06:34:14.319Z,95288
2022-09-09T06:35:16.804Z,95287.6
2022-09-09T06:36:19.294Z,95291.5
2022-09-09T06:37:21.709Z,95295
2022-09-09T06:38:23.911Z,95291.5
2022-09-09T06:39:26.404Z,95290.7
2022-09-09T06:40:28.608Z,95287.4
2022-09-09T06:41:31.095Z,95293.2
2022-09-09T06:42:33.306Z,95291.8
2022-09-09T06:43:35.786Z,95293.9
2022-09-09T06:44:37.763Z,95290.4
2022-09-09T06:45:39.962Z,95291.6
2022-09-09T06:46:42.635Z,95293
2022-09-09T06:47:45.318Z,95293.3
2022-09-09T06:48:47.544Z,95292.5
2022-09-09T06:49:49.806Z,95297.5
2022-09-09T06:50:52.008Z,95298.2
2022-09-09T06:51:55.670Z,95301.3
2022-09-09T06:52:58.147Z,95300.6
2022-09-09T06:54:00.347Z,95303.8
2022-09-09T06:55:02.553Z,95301
2022-09-09T06:56:04.778Z,95315.3
2022-09-09T06:58:11.997Z,95310.9
2022-09-09T06:59:14.189Z,95317.1
2022-09-09T07:00:16.169Z,95314.8
2022-09-09T07:01:18.221Z,95321
2022-09-09T07:02:21.121Z,95321.8
2022-09-09T07:03:23.411Z,95324.1
2022-09-09T07:04:25.364Z,95322.9
2022-09-09T07:05:27.041Z,95329.3
2022-09-09T07:06:28.954Z,95337.4
2022-09-09T07:07:30.894Z,95350
2022-09-09T07:08:33.561Z,95351.9
2022-09-09T07:09:36.118Z,95355.7
2022-09-09T07:10:38.619Z,95352.6
2022-09-09T07:11:41.094Z,95347
2022-09-09T07:12:43.312Z,95349.7
2022-09-09T07:13:45.556Z,95351
2022-09-09T07:14:48.023Z,95351.1
2022-09-09T07:15:50.697Z,95355.5
2022-09-09T07:18:00.695Z,95358.2
2022-09-09T07:19:03.214Z,95354.7
2022-09-09T07:20:05.422Z,95357.3
2022-09-09T07:21:07.611Z,95353.9
2022-09-09T07:22:09.815Z,95357.3
2022-09-09T07:23:12.289Z,95352.2
2022-09-09T07:24:15.295Z,95353.7
2022-09-09T07:25:17.538Z,95350.8
2022-09-09T07:26:19.786Z,95356.5
2022-09-09T07:27:21.987Z,95352.1
2022-09-09T07:28:24.236Z,95353.7
2022-09-09T07:29:26.466Z,95355.1
2022-09-09T07:30:29.639Z,95355.2
2022-09-09T07:31:32.549Z,95354
2022-09-09T07:32:35.177Z,95353.5
2022-09-09T07:33:37.852Z,95350.9
2022-09-09T07:34:40.498Z,95352.9
2022-09-09T07:35:42.729Z,95353.5
2022-09-09T07:36:44.917Z,95359.8
2022-09-09T07:38:52.116Z,95352.2
2022-09-09T07:39:54.911Z,95353.2
2022-09-09T07:40:57.504Z,95356.3
2022-09-09T07:42:00.036Z,95361.7
2022-09-09T07:43:01.701Z,95361.3
2022-09-09T07:44:04.177Z,95361.1
2022-09-09T07:45:06.412Z,95362.3
2022-09-09T07:46:09.118Z,95365.9
2022-09-09T07:47:11.468Z,95367.2
2022-09-09T07:48:13.939Z,95364.1
2022-09-09T07:49:16.138Z,95364.5
2022-09-09T07:50:18.386Z,95366.3
2022-09-09T07:51:20.866Z,95373.2
2022-09-09T07:52:23.486Z,95369.3
2022-09-09T07:53:25.681Z,95370.4
2022-09-09T07:54:28.191Z,95370.4
2022-09-09T07:55:30.666Z,95366.8
2022-09-09T07:56:35.159Z,95370.4
2022-09-09T07:57:52.117Z,95369.8
2022-09-09T07:58:54.619Z,95368.3
2022-09-09T07:59:57.102Z,95372.6
2022-09-09T08:00:59.592Z,95371.8
2022-09-09T08:02:02.369Z,95373.5
2022-09-09T08:03:04.931Z,95376.1
2022-09-09T08:04:07.170Z,95373.4
2022-09-09T08:05:09.646Z,95374.7
2022-09-09T08:06:12.140Z,95376.5
2022-09-09T08:07:14.353Z,95381.3
2022-09-09T08:08:16.287Z,95385.2
2022-09-09T08:09:18.766Z,95384.5
2022-09-09T08:10:20.799Z,95386.7
2022-09-09T08:11:23.271Z,95387
2022-09-09T08:12:25.752Z,95387.7
2022-09-09T08:13:28.269Z,95387.2
2022-09-09T08:14:30.588Z,95391.1
2022-09-09T08:15:33.072Z,95391.5
2022-09-09T08:16:35.318Z,95393.5
2022-09-09T08:17:37.513Z,95391.5
2022-09-09T08:18:40.006Z,95390.9
2022-09-09T08:19:42.479Z,95389.7
2022-09-09T08:20:44.418Z,95389.5
2022-09-09T08:21:46.927Z,95392.5
2022-09-09T08:22:48.918Z,95391.9
2022-09-09T08:24:56.390Z,95397.9
2022-09-09T08:25:58.589Z,95398.1
2022-09-09T08:27:01.076Z,95397.3
2022-09-09T08:28:03.494Z,95402.7
2022-09-09T08:29:05.973Z,95404.8
2022-09-09T08:30:08.487Z,95408.1
2022-09-09T08:31:11.454Z,95404.8
2022-09-09T08:32:14.214Z,95408.5
2022-09-09T08:33:16.696Z,95405.5
2022-09-09T08:34:18.946Z,95403.7
2022-09-09T08:35:21.164Z,95405.5
2022-09-09T08:36:23.681Z,95405.3
2022-09-09T08:37:25.910Z,95400.4
2022-09-09T08:38:28.463Z,95403.6
2022-09-09T08:39:31.040Z,95403.2
2022-09-09T08:40:33.622Z,95402.6
2022-09-09T08:41:35.800Z,95404.4
2022-09-09T08:42:38.006Z,95404.3
2022-09-09T08:43:40.202Z,95402.6
2022-09-09T08:45:47.150Z,95406.8
2022-09-09T08:46:49.807Z,95407.8
2022-09-09T08:47:52.410Z,95412.6
2022-09-09T08:48:54.594Z,95409.9
2022-09-09T08:49:56.861Z,95415.3
2022-09-09T08:50:59.358Z,95415.8
2022-09-09T08:52:01.833Z,95413.2
2022-09-09T08:53:04.388Z,95413.9
2022-09-09T08:54:06.915Z,95411.1
2022-09-09T08:55:09.143Z,95408
2022-09-09T08:56:11.657Z,95412.1
2022-09-09T08:57:13.913Z,95409.6
2022-09-09T08:58:16.406Z,95413.7
2022-09-09T08:59:18.898Z,95413.9
2022-09-09T09:00:21.072Z,95409.7
2022-09-09T09:01:23.329Z,95402.6
2022-09-09T09:02:26.073Z,95406.3
2022-09-09T09:03:28.398Z,95405.3
2022-09-09T09:04:31.246Z,95407.6
2022-09-09T09:05:33.614Z,95406
2022-09-09T09:06:35.875Z,95408.9
2022-09-09T09:07:38.076Z,95406.5
2022-09-09T09:08:40.579Z,95406.3
2022-09-09T09:09:42.847Z,95406.4
2022-09-09T09:10:45.406Z,95403.7
2022-09-09T09:11:47.616Z,95405.7
2022-09-09T09:12:49.819Z,95405.5
2022-09-09T09:13:52.036Z,95403.7
2022-09-09T09:14:54.526Z,95400.9
2022-09-09T09:15:56.337Z,95404.2
2022-09-09T09:16:58.345Z,95404.4
2022-09-09T09:18:00.564Z,95405.1
2022-09-09T09:19:02.796Z,95399.3
2022-09-09T09:20:04.999Z,95400.5
2022-09-09T09:21:06.956Z,95397.9
2022-09-09T09:22:09.446Z,95399.7
2022-09-09T09:23:11.925Z,95400.7
2022-09-09T09:24:15.753Z,95401.7
2022-09-09T09:25:20.344Z,95404.7
2022-09-09T09:26:22.922Z,95403.4
2022-09-09T09:27:25.173Z,95404.5
2022-09-09T09:28:27.393Z,95406.1
2022-09-09T09:29:29.586Z,95404.9
2022-09-09T09:30:32.623Z,95409.9
2022-09-09T09:31:34.607Z,95412.5
2022-09-09T09:32:37.251Z,95412.5
2022-09-09T09:33:39.514Z,95414.2
2022-09-09T09:34:41.501Z,95413.1
2022-09-09T09:35:46.020Z,95412.2
2022-09-09T09:36:48.286Z,95411.4
2022-09-09T09:41:06.029Z,95416.1
2022-09-09T09:42:08.523Z,95409.6
2022-09-09T09:43:10.758Z,95409.8
2022-09-09T09:44:12.962Z,95410.1
2022-09-09T09:45:15.173Z,95410.4
2022-09-09T09:46:20.002Z,95411.1
2022-09-09T09:47:23.063Z,95412.2
2022-09-09T09:48:25.567Z,95407.9
2022-09-09T09:49:27.470Z,95408.8
2022-09-09T09:50:29.427Z,95413.2
2022-09-09T09:51:31.634Z,95412
2022-09-09T09:52:34.178Z,95412.5
2022-09-09T09:53:36.185Z,95413.2
2022-09-09T09:54:38.272Z,95411.9
2022-09-09T09:55:40.787Z,95412.6
2022-09-09T09:56:43.402Z,95415.7
2022-09-09T09:57:45.781Z,95416
2022-09-09T09:58:48.038Z,95412
2022-09-09T09:59:50.239Z,95411.2
2022-09-09T10:00:52.203Z,95414.1
2022-09-09T10:01:54.427Z,95409.6
2022-09-09T10:02:56.793Z,95407
2022-09-09T10:03:59.338Z,95410.2
2022-09-09T10:05:01.886Z,95411.7
2022-09-09T10:06:04.547Z,95413.8
2022-09-09T10:07:06.752Z,95412.2
2022-09-09T10:08:08.686Z,95413.3
2022-09-09T10:09:10.892Z,95411.1
2022-09-09T10:10:13.608Z,95414.3
2022-09-09T10:11:15.822Z,95410
2022-09-09T10:12:17.826Z,95413
2022-09-09T10:13:20.403Z,95409.2
2022-09-09T10:14:22.886Z,95406.2
2022-09-09T10:15:25.175Z,95410.8
2022-09-09T10:16:27.323Z,95407.3
2022-09-09T10:17:29.554Z,95408.1
2022-09-09T10:18:32.080Z,95406.8
2022-09-09T10:19:34.417Z,95408.9
2022-09-09T10:20:36.890Z,95415.3
2022-09-09T10:21:39.397Z,95413.2
2022-09-09T10:22:41.626Z,95416.2
2022-09-09T10:23:44.189Z,95419.9
2022-09-09T10:24:46.703Z,95417.2
2022-09-09T10:25:49.204Z,95415.8
2022-09-09T10:26:51.676Z,95418.2
2022-09-09T10:28:59.312Z,95413.9
2022-09-09T10:30:01.535Z,95416
2022-09-09T10:31:04.272Z,95420
2022-09-09T10:32:06.878Z,95416.7
2022-09-09T10:34:11.866Z,95409.7
2022-09-09T10:35:14.086Z,95409.1
2022-09-09T10:36:16.295Z,95407.9
2022-09-09T10:37:18.527Z,95407.3
2022-09-09T10:38:20.739Z,95404.2
2022-09-09T10:39:23.230Z,95405
2022-09-09T10:40:25.996Z,95408.1
2022-09-09T10:41:28.118Z,95405.2
2022-09-09T10:42:30.603Z,95410.6
2022-09-09T10:43:32.971Z,95409.4
2022-09-09T10:44:35.565Z,95409.5
2022-09-09T10:45:37.768Z,95408.3
2022-09-09T10:46:39.696Z,95409.9
2022-09-09T10:47:42.046Z,95411
2022-09-09T10:48:44.247Z,95410.9
2022-09-09T10:49:46.420Z,95410.9
2022-09-09T10:51:53.929Z,95414.1
2022-09-09T10:52:56.160Z,95407.5
2022-09-09T10:53:58.354Z,95405.5
2022-09-09T10:55:00.596Z,95406.7
2022-09-09T10:56:02.520Z,95407.8
2022-09-09T10:57:05.006Z,95414
2022-09-09T10:58:07.196Z,95416.1
2022-09-09T10:59:09.680Z,95411.2
2022-09-09T11:00:12.177Z,95413.1
2022-09-09T11:01:14.614Z,95409
2022-09-09T11:02:16.624Z,95408
2022-09-09T11:03:18.827Z,95408.8
2022-09-09T11:04:21.243Z,95402.8
2022-09-09T11:05:23.772Z,95402.4
2022-09-09T11:06:26.514Z,95404.4
2022-09-09T11:07:29.076Z,95406
2022-09-09T11:08:31.582Z,95399.9
2022-09-09T11:09:33.808Z,95402.2
2022-09-09T11:10:36.029Z,95404.3
2022-09-09T11:11:38.510Z,95406.3
2022-09-09T11:12:40.449Z,95403.4
2022-09-09T11:13:42.933Z,95403.5
2022-09-09T11:14:45.409Z,95400.1
2022-09-09T11:15:47.910Z,95403.1
2022-09-09T11:16:50.753Z,95401.3
2022-09-09T11:17:52.760Z,95400.9
2022-09-09T11:18:55.238Z,95401.3
2022-09-09T11:19:57.724Z,95398.9
2022-09-09T11:20:59.943Z,95404.5
2022-09-09T11:22:01.866Z,95404
2022-09-09T11:23:04.403Z,95404.3
2022-09-09T11:24:06.917Z,95406.7
2022-09-09T11:25:09.502Z,95401.9
2022-09-09T11:26:11.900Z,95401.2
2022-09-09T11:27:14.472Z,95402.7
2022-09-09T11:28:16.979Z,95398.6
2022-09-09T11:29:19.864Z,95410.2
2022-09-09T11:31:27.316Z,95401.2
2022-09-09T11:32:29.878Z,95405.5
2022-09-09T11:33:33.132Z,95400.4
2022-09-09T11:35:39.582Z,95407.3
2022-09-09T11:36:42.113Z,95402
2022-09-09T11:37:44.611Z,95407.6
2022-09-09T11:38:47.100Z,95407.4
2022-09-09T11:39:49.535Z,95399.4
2022-09-09T11:40:52.109Z,95406.3
2022-09-09T11:41:54.038Z,95404
2022-09-09T11:42:55.978Z,95402.5
2022-09-09T11:43:58.463Z,95399.5
2022-09-09T11:45:00.467Z,95401.8
2022-09-09T11:46:03.134Z,95400.2
2022-09-09T11:47:05.915Z,95396.9
2022-09-09T11:48:08.576Z,95399.7
2022-09-09T11:49:10.768Z,95405.2
2022-09-09T11:50:12.977Z,95405.5
2022-09-09T11:52:20.443Z,95401.9
2022-09-09T11:53:22.950Z,95399.9
2022-09-09T11:54:25.421Z,95401.4
2022-09-09T11:55:27.944Z,95398.7
2022-09-09T11:56:30.154Z,95401.1
2022-09-09T11:57:32.643Z,95403
2022-09-09T11:58:49.962Z,95402.9
2022-09-09T11:59:53.095Z,95405.3
2022-09-09T12:00:55.303Z,95406.4
2022-09-09T12:01:58.082Z,95397.6
2022-09-09T12:03:00.818Z,95400.6
2022-09-09T12:04:03.465Z,95396.6
2022-09-09T12:05:06.067Z,95397
2022-09-09T12:06:08.569Z,95398.3
2022-09-09T12:07:11.137Z,95400.1
2022-09-09T12:08:13.339Z,95400.2
2022-09-09T12:09:15.854Z,95400.6
2022-09-09T12:10:18.065Z,95398.9
2022-09-09T12:11:20.298Z,95398.2
2022-09-09T12:12:21.956Z,95395.4
2022-09-09T12:13:24.465Z,95392.2
2022-09-09T12:14:26.945Z,95392.4
2022-09-09T12:15:29.155Z,95394.8
2022-09-09T12:16:31.938Z,95392.7
2022-09-09T12:17:34.279Z,95392.1
2022-09-09T12:18:36.888Z,95393.8
2022-09-09T12:19:39.026Z,95392.2
2022-09-09T12:20:41.196Z,95396.3
2022-09-09T12:21:43.151Z,95399.6
2022-09-09T12:22:45.652Z,95391.4
2022-09-09T12:23:47.857Z,95395.3
2022-09-09T12:24:49.842Z,95390.3
2022-09-09T12:25:51.771Z,95391.9
2022-09-09T12:26:54.023Z,95385.3
2022-09-09T12:27:56.232Z,95383.5
2022-09-09T12:28:58.752Z,95381
2022-09-09T12:30:01.277Z,95383
2022-09-09T12:31:04.200Z,95381.1
2022-09-09T12:32:06.925Z,95379.3
2022-09-09T12:33:09.132Z,95381.6
2022-09-09T12:34:11.755Z,95387.3
2022-09-09T12:35:14.249Z,95386.6
2022-09-09T12:36:16.735Z,95385.6
2022-09-09T12:37:18.949Z,95384.4
2022-09-09T12:38:22.414Z,95381.8
2022-09-09T12:39:26.343Z,95385.7
2022-09-09T12:40:28.544Z,95382.5
2022-09-09T12:41:30.754Z,95381.9
2022-09-09T12:42:33.025Z,95387.5
2022-09-09T12:43:40.134Z,95386.1
2022-09-09T12:44:42.357Z,95382.7
2022-09-09T12:45:44.740Z,95382.2
2022-09-09T12:46:48.299Z,95381.9
2022-09-09T12:47:50.785Z,95379.2
2022-09-09T12:48:52.717Z,95378.1
2022-09-09T12:49:55.219Z,95379
2022-09-09T12:50:57.502Z,95384
2022-09-09T12:51:59.713Z,95381.4
2022-09-09T12:53:02.198Z,95378.1
2022-09-09T12:54:04.391Z,95376.3
2022-09-09T12:55:06.330Z,95370.3
2022-09-09T12:56:08.856Z,95378.8
2022-09-09T12:57:11.087Z,95377
2022-09-09T12:58:13.307Z,95377.6